sensor_id;sensor_type;location;lat;lon;timestamp;pressure;altitude;pressure_sealevel;temperature;humidity
21547;BME280;41275;51.912;4.388;2023-03-31T00:03:23;100218.16;;;18.10;49.91
21547;BME280;41275;51.912;4.388;2023-03-31T00:08:45;100208.22;;;18.11;50.12
21547;BME280;41275;51.912;4.388;2023-03-31T00:14:11;100196.72;;;18.10;50.45
21547;BME280;41275;51.912;4.388;2023-03-31T00:19:32;100175.88;;;18.07;50.47
21547;BME280;41275;51.912;4.388;2023-03-31T00:24:53;100166.00;;;18.08;50.79
21547;BME280;41275;51.912;4.388;2023-03-31T00:30:15;100164.00;;;18.13;50.83
21547;BME280;41275;51.912;4.388;2023-03-31T00:35:36;100160.34;;;18.23;50.79
21547;BME280;41275;51.912;4.388;2023-03-31T00:40:59;100147.19;;;18.27;50.72
21547;BME280;41275;51.912;4.388;2023-03-31T00:46:29;100142.25;;;18.34;50.96
21547;BME280;41275;51.912;4.388;2023-03-31T00:51:56;100130.94;;;18.37;50.93
21547;BME280;41275;51.912;4.388;2023-03-31T00:57:20;100118.53;;;18.41;51.05
21547;BME280;41275;51.912;4.388;2023-03-31T01:02:44;100111.09;;;18.38;50.95
21547;BME280;41275;51.912;4.388;2023-03-31T01:08:13;100102.09;;;18.01;51.47
21547;BME280;41275;51.912;4.388;2023-03-31T01:13:37;100093.22;;;17.87;52.54
21547;BME280;41275;51.912;4.388;2023-03-31T01:18:58;100078.03;;;17.82;52.46
21547;BME280;41275;51.912;4.388;2023-03-31T01:30:34;100057.06;;;17.71;52.98
21547;BME280;41275;51.912;4.388;2023-03-31T01:41:53;100020.84;;;17.59;53.64
21547;BME280;41275;51.912;4.388;2023-03-31T01:53:32;99981.91;;;17.53;54.03
21547;BME280;41275;51.912;4.388;2023-03-31T01:59:11;99967.13;;;17.56;54.45
21547;BME280;41275;51.912;4.388;2023-03-31T02:04:42;99958.44;;;17.64;54.33
21547;BME280;41275;51.912;4.388;2023-03-31T02:10:08;99944.47;;;17.67;54.10
21547;BME280;41275;51.912;4.388;2023-03-31T02:15:34;99900.44;;;17.59;54.41
21547;BME280;41275;51.912;4.388;2023-03-31T02:20:59;99898.19;;;17.66;54.10
21547;BME280;41275;51.912;4.388;2023-03-31T02:26:25;99884.22;;;17.70;54.34
21547;BME280;41275;51.912;4.388;2023-03-31T02:31:56;99864.41;;;17.71;54.15
21547;BME280;41275;51.912;4.388;2023-03-31T02:37:20;99841.91;;;17.72;54.42
21547;BME280;41275;51.912;4.388;2023-03-31T02:42:42;99829.63;;;17.71;54.28
21547;BME280;41275;51.912;4.388;2023-03-31T02:48:39;99810.41;;;17.69;53.87
21547;BME280;41275;51.912;4.388;2023-03-31T03:06:09;99776.03;;;17.34;53.82
21547;BME280;41275;51.912;4.388;2023-03-31T03:11:18;99759.25;;;17.56;53.06
21547;BME280;41275;51.912;4.388;2023-03-31T03:16:45;99751.22;;;17.56;52.98
21547;BME280;41275;51.912;4.388;2023-03-31T03:22:08;99723.50;;;17.52;52.95
21547;BME280;41275;51.912;4.388;2023-03-31T03:27:29;99707.94;;;17.54;53.13
21547;BME280;41275;51.912;4.388;2023-03-31T03:32:51;99688.63;;;17.57;53.10
21547;BME280;41275;51.912;4.388;2023-03-31T03:38:14;99663.06;;;17.65;53.00
21547;BME280;41275;51.912;4.388;2023-03-31T03:43:35;99650.94;;;17.67;53.06
21547;BME280;41275;51.912;4.388;2023-03-31T03:48:56;99642.91;;;17.67;52.85
21547;BME280;41275;51.912;4.388;2023-03-31T03:54:18;99620.25;;;17.65;53.06
21547;BME280;41275;51.912;4.388;2023-03-31T03:59:39;99620.25;;;17.65;53.24
21547;BME280;41275;51.912;4.388;2023-03-31T04:05:00;99594.88;;;17.62;53.13
21547;BME280;41275;51.912;4.388;2023-03-31T04:10:21;99583.88;;;17.64;53.28
21547;BME280;41275;51.912;4.388;2023-03-31T04:15:42;99563.28;;;17.64;53.54
21547;BME280;41275;51.912;4.388;2023-03-31T04:21:04;99554.16;;;17.65;53.73
21547;BME280;41275;51.912;4.388;2023-03-31T04:26:27;99546.13;;;17.65;53.60
21547;BME280;41275;51.912;4.388;2023-03-31T04:31:59;99535.25;;;17.62;53.44
21547;BME280;41275;51.912;4.388;2023-03-31T04:37:20;99528.78;;;17.63;53.52
21547;BME280;41275;51.912;4.388;2023-03-31T04:42:42;99522.34;;;17.64;53.71
21547;BME280;41275;51.912;4.388;2023-03-31T04:48:03;99512.75;;;17.63;53.64
21547;BME280;41275;51.912;4.388;2023-03-31T04:53:25;99491.28;;;17.54;53.27
21547;BME280;41275;51.912;4.388;2023-03-31T04:58:46;99485.16;;;17.54;53.29
21547;BME280;41275;51.912;4.388;2023-03-31T05:04:08;99476.03;;;17.55;53.51
21547;BME280;41275;51.912;4.388;2023-03-31T05:09:29;99471.19;;;17.57;53.32
21547;BME280;41275;51.912;4.388;2023-03-31T05:14:50;99463.16;;;17.57;53.28
21547;BME280;41275;51.912;4.388;2023-03-31T05:20:12;99466.63;;;17.57;53.07
21547;BME280;41275;51.912;4.388;2023-03-31T05:25:33;99462.47;;;17.51;52.90
21547;BME280;41275;51.912;4.388;2023-03-31T05:30:54;99448.88;;;17.39;52.89
21547;BME280;41275;51.912;4.388;2023-03-31T05:36:18;99452.13;;;17.36;52.98
21547;BME280;41275;51.912;4.388;2023-03-31T05:41:39;99440.78;;;17.30;52.82
21547;BME280;41275;51.912;4.388;2023-03-31T05:47:01;99432.41;;;17.23;52.63
21547;BME280;41275;51.912;4.388;2023-03-31T05:52:22;99432.03;;;17.16;52.65
21547;BME280;41275;51.912;4.388;2023-03-31T05:57:43;99437.00;;;17.09;52.82
21547;BME280;41275;51.912;4.388;2023-03-31T06:03:04;99411.56;;;17.11;52.71
21547;BME280;41275;51.912;4.388;2023-03-31T06:08:28;99411.38;;;17.08;53.20
21547;BME280;41275;51.912;4.388;2023-03-31T06:13:49;99400.50;;;17.04;53.40
21547;BME280;41275;51.912;4.388;2023-03-31T06:19:10;99401.38;;;17.13;53.17
21547;BME280;41275;51.912;4.388;2023-03-31T06:24:32;99405.06;;;17.26;53.26
21547;BME280;41275;51.912;4.388;2023-03-31T06:29:53;99392.53;;;17.35;53.57
21547;BME280;41275;51.912;4.388;2023-03-31T06:35:14;99375.28;;;17.41;53.16
21547;BME280;41275;51.912;4.388;2023-03-31T06:40:36;99382.38;;;17.46;52.99
21547;BME280;41275;51.912;4.388;2023-03-31T06:45:57;99373.09;;;17.52;53.56
21547;BME280;41275;51.912;4.388;2023-03-31T06:51:18;99365.47;;;17.68;53.14
21547;BME280;41275;51.912;4.388;2023-03-31T06:56:39;99359.88;;;17.78;53.14
21547;BME280;41275;51.912;4.388;2023-03-31T07:02:01;99356.03;;;17.71;53.15
21547;BME280;41275;51.912;4.388;2023-03-31T07:07:22;99356.81;;;17.71;53.15
21547;BME280;41275;51.912;4.388;2023-03-31T07:12:43;99352.47;;;17.75;53.07
21547;BME280;41275;51.912;4.388;2023-03-31T07:18:05;99350.75;;;17.88;53.04
21547;BME280;41275;51.912;4.388;2023-03-31T07:23:26;99350.81;;;17.97;52.89
21547;BME280;41275;51.912;4.388;2023-03-31T07:28:47;99341.06;;;18.09;52.71
21547;BME280;41275;51.912;4.388;2023-03-31T07:34:09;99340.00;;;18.28;52.36
21547;BME280;41275;51.912;4.388;2023-03-31T07:39:30;99334.03;;;18.39;52.15
21547;BME280;41275;51.912;4.388;2023-03-31T07:44:51;99323.94;;;18.45;51.81
21547;BME280;41275;51.912;4.388;2023-03-31T07:50:13;99317.63;;;18.41;51.92
21547;BME280;41275;51.912;4.388;2023-03-31T07:55:35;99309.94;;;18.39;51.81
21547;BME280;41275;51.912;4.388;2023-03-31T08:00:56;99306.28;;;18.61;51.87
21547;BME280;41275;51.912;4.388;2023-03-31T08:06:19;99305.03;;;18.68;51.71
21547;BME280;41275;51.912;4.388;2023-03-31T08:11:40;99287.69;;;18.74;51.60
21547;BME280;41275;51.912;4.388;2023-03-31T08:17:01;99273.69;;;18.59;51.45
21547;BME280;41275;51.912;4.388;2023-03-31T08:22:23;99271.31;;;18.40;51.24
21547;BME280;41275;51.912;4.388;2023-03-31T08:27:45;99286.44;;;18.36;51.72
21547;BME280;41275;51.912;4.388;2023-03-31T08:33:08;99265.31;;;18.78;51.70
21547;BME280;41275;51.912;4.388;2023-03-31T08:38:32;99253.13;;;18.89;51.51
21547;BME280;41275;51.912;4.388;2023-03-31T08:43:54;99238.81;;;18.85;51.36
21547;BME280;41275;51.912;4.388;2023-03-31T08:49:18;99241.25;;;19.08;50.96
21547;BME280;41275;51.912;4.388;2023-03-31T08:54:43;99243.16;;;19.46;50.40
21547;BME280;41275;51.912;4.388;2023-03-31T09:00:16;99239.44;;;19.68;49.54
21547;BME280;41275;51.912;4.388;2023-03-31T09:05:45;99244.88;;;19.50;48.95
21547;BME280;41275;51.912;4.388;2023-03-31T09:11:35;99236.41;;;19.40;49.02
21547;BME280;41275;51.912;4.388;2023-03-31T09:17:06;99225.75;;;19.22;49.18
21547;BME280;41275;51.912;4.388;2023-03-31T09:22:36;99220.41;;;19.22;49.57
21547;BME280;41275;51.912;4.388;2023-03-31T09:27:59;99204.25;;;19.31;49.40
21547;BME280;41275;51.912;4.388;2023-03-31T09:33:28;99206.22;;;19.22;49.22
21547;BME280;41275;51.912;4.388;2023-03-31T09:38:52;99192.06;;;19.33;49.12
21547;BME280;41275;51.912;4.388;2023-03-31T09:50:07;99186.13;;;18.98;49.58
21547;BME280;41275;51.912;4.388;2023-03-31T09:55:42;99194.47;;;18.97;49.94
21547;BME280;41275;51.912;4.388;2023-03-31T10:01:05;99190.22;;;18.96;49.96
21547;BME280;41275;51.912;4.388;2023-03-31T10:06:28;99178.75;;;18.78;49.91
21547;BME280;41275;51.912;4.388;2023-03-31T10:11:55;99178.97;;;18.47;49.81
21547;BME280;41275;51.912;4.388;2023-03-31T10:17:24;99183.88;;;18.45;50.32
21547;BME280;41275;51.912;4.388;2023-03-31T10:22:47;99179.72;;;18.64;50.02
21547;BME280;41275;51.912;4.388;2023-03-31T10:28:10;99174.06;;;18.75;49.67
21547;BME280;41275;51.912;4.388;2023-03-31T10:33:32;99178.28;;;18.84;49.54
21547;BME280;41275;51.912;4.388;2023-03-31T10:38:55;99176.41;;;18.76;49.43
21547;BME280;41275;51.912;4.388;2023-03-31T10:44:31;99166.03;;;18.75;49.65
21547;BME280;41275;51.912;4.388;2023-03-31T10:49:56;99150.34;;;18.85;49.52
21547;BME280;41275;51.912;4.388;2023-03-31T10:55:35;99147.34;;;18.96;49.20
21547;BME280;41275;51.912;4.388;2023-03-31T11:01:18;99136.19;;;18.85;49.15
21547;BME280;41275;51.912;4.388;2023-03-31T11:12:20;99139.03;;;18.07;49.93
21547;BME280;41275;51.912;4.388;2023-03-31T11:18:00;99153.16;;;17.64;51.16
21547;BME280;41275;51.912;4.388;2023-03-31T11:23:44;99134.00;;;17.71;51.65
21547;BME280;41275;51.912;4.388;2023-03-31T11:29:24;99145.38;;;17.85;52.24
21547;BME280;41275;51.912;4.388;2023-03-31T11:46:23;99108.78;;;18.24;51.52
21547;BME280;41275;51.912;4.388;2023-03-31T11:51:58;99109.22;;;18.34;51.08
21547;BME280;41275;51.912;4.388;2023-03-31T11:57:26;99109.22;;;18.43;50.88
21547;BME280;41275;51.912;4.388;2023-03-31T12:03:01;99099.63;;;18.33;50.82
21547;BME280;41275;51.912;4.388;2023-03-31T12:08:52;99091.56;;;18.42;51.08
21547;BME280;41275;51.912;4.388;2023-03-31T12:19:50;99085.75;;;18.40;50.88
21547;BME280;41275;51.912;4.388;2023-03-31T12:25:14;99062.59;;;18.35;51.38
21547;BME280;41275;51.912;4.388;2023-03-31T12:30:38;99083.78;;;18.02;51.40
21547;BME280;41275;51.912;4.388;2023-03-31T12:42:08;99075.44;;;18.12;51.34
21547;BME280;41275;51.912;4.388;2023-03-31T12:53:34;99062.09;;;17.86;51.83
21547;BME280;41275;51.912;4.388;2023-03-31T12:59:17;99059.09;;;17.97;52.08
21547;BME280;41275;51.912;4.388;2023-03-31T13:04:38;99046.13;;;18.16;52.12
21547;BME280;41275;51.912;4.388;2023-03-31T13:15:39;99032.63;;;18.04;52.33
21547;BME280;41275;51.912;4.388;2023-03-31T13:21:09;99033.69;;;18.50;52.28
21547;BME280;41275;51.912;4.388;2023-03-31T13:48:42;99021.19;;;18.62;51.76
21547;BME280;41275;51.912;4.388;2023-03-31T14:05:55;99002.38;;;18.80;50.76
21547;BME280;41275;51.912;4.388;2023-03-31T14:16:55;98985.88;;;18.39;50.94
21547;BME280;41275;51.912;4.388;2023-03-31T14:28:37;98980.88;;;18.29;50.89
21547;BME280;41275;51.912;4.388;2023-03-31T14:40:12;98985.09;;;18.30;50.88
21547;BME280;41275;51.912;4.388;2023-03-31T14:45:34;98963.69;;;18.30;50.85
21547;BME280;41275;51.912;4.388;2023-03-31T14:50:59;98969.38;;;18.29;50.53
21547;BME280;41275;51.912;4.388;2023-03-31T14:56:29;98960.16;;;18.09;51.05
21547;BME280;41275;51.912;4.388;2023-03-31T15:01:55;98967.16;;;18.31;51.19
21547;BME280;41275;51.912;4.388;2023-03-31T15:07:17;98946.78;;;18.38;51.07
21547;BME280;41275;51.912;4.388;2023-03-31T15:12:39;98956.28;;;18.36;51.59
21547;BME280;41275;51.912;4.388;2023-03-31T15:18:01;98951.41;;;18.29;51.54
21547;BME280;41275;51.912;4.388;2023-03-31T15:23:25;98931.59;;;18.22;51.43
21547;BME280;41275;51.912;4.388;2023-03-31T15:28:53;98933.06;;;18.10;51.88
21547;BME280;41275;51.912;4.388;2023-03-31T15:34:21;98931.56;;;18.01;52.13
21547;BME280;41275;51.912;4.388;2023-03-31T15:39:47;98927.94;;;17.97;52.45
21547;BME280;41275;51.912;4.388;2023-03-31T15:51:36;98923.91;;;17.73;52.65
21547;BME280;41275;51.912;4.388;2023-03-31T15:57:03;98914.16;;;17.60;52.90
21547;BME280;41275;51.912;4.388;2023-03-31T16:02:37;98919.38;;;17.56;53.58
21547;BME280;41275;51.912;4.388;2023-03-31T16:07:59;98906.94;;;17.60;53.55
21547;BME280;41275;51.912;4.388;2023-03-31T16:13:23;98911.03;;;17.58;53.77
21547;BME280;41275;51.912;4.388;2023-03-31T16:18:50;98893.28;;;17.53;53.97
21547;BME280;41275;51.912;4.388;2023-03-31T16:24:16;98909.59;;;17.78;54.13
21547;BME280;41275;51.912;4.388;2023-03-31T16:29:42;98902.78;;;17.89;53.59
21547;BME280;41275;51.912;4.388;2023-03-31T16:35:04;98911.47;;;17.86;53.78
21547;BME280;41275;51.912;4.388;2023-03-31T16:40:29;98889.44;;;17.72;53.48
21547;BME280;41275;51.912;4.388;2023-03-31T16:45:57;98891.72;;;17.43;53.83
21547;BME280;41275;51.912;4.388;2023-03-31T16:51:19;98884.22;;;17.28;54.08
21547;BME280;41275;51.912;4.388;2023-03-31T16:56:40;98885.50;;;17.13;54.05
21547;BME280;41275;51.912;4.388;2023-03-31T17:02:01;98879.53;;;16.99;54.11
21547;BME280;41275;51.912;4.388;2023-03-31T17:07:25;98891.94;;;17.04;54.56
21547;BME280;41275;51.912;4.388;2023-03-31T17:12:47;98891.78;;;17.09;54.77
21547;BME280;41275;51.912;4.388;2023-03-31T17:18:11;98885.66;;;17.00;54.71
21547;BME280;41275;51.912;4.388;2023-03-31T17:23:33;98898.53;;;16.98;54.90
21547;BME280;41275;51.912;4.388;2023-03-31T17:28:54;98902.50;;;16.83;54.76
21547;BME280;41275;51.912;4.388;2023-03-31T17:34:16;98895.28;;;16.75;55.28
21547;BME280;41275;51.912;4.388;2023-03-31T17:39:37;98897.94;;;16.75;55.57
21547;BME280;41275;51.912;4.388;2023-03-31T17:44:59;98897.88;;;16.66;55.02
21547;BME280;41275;51.912;4.388;2023-03-31T17:50:26;98900.41;;;16.62;55.30
21547;BME280;41275;51.912;4.388;2023-03-31T17:55:48;98899.31;;;16.63;55.59
21547;BME280;41275;51.912;4.388;2023-03-31T18:01:10;98901.03;;;16.68;55.60
21547;BME280;41275;51.912;4.388;2023-03-31T18:06:32;98888.16;;;16.61;55.54
21547;BME280;41275;51.912;4.388;2023-03-31T18:11:54;98895.03;;;16.54;55.70
21547;BME280;41275;51.912;4.388;2023-03-31T18:17:17;98900.38;;;16.54;55.63
21547;BME280;41275;51.912;4.388;2023-03-31T18:22:39;98887.66;;;16.42;55.98
21547;BME280;41275;51.912;4.388;2023-03-31T18:28:00;98903.22;;;16.40;56.07
21547;BME280;41275;51.912;4.388;2023-03-31T18:33:26;98893.75;;;16.34;56.43
21547;BME280;41275;51.912;4.388;2023-03-31T18:38:59;98875.56;;;16.27;56.30
21547;BME280;41275;51.912;4.388;2023-03-31T18:44:26;98884.97;;;16.33;56.43
21547;BME280;41275;51.912;4.388;2023-03-31T18:49:47;98893.75;;;16.25;56.54
21547;BME280;41275;51.912;4.388;2023-03-31T18:55:17;98886.22;;;16.27;56.94
21547;BME280;41275;51.912;4.388;2023-03-31T19:00:39;98893.44;;;16.27;56.68
21547;BME280;41275;51.912;4.388;2023-03-31T19:06:06;98888.56;;;16.29;57.13
21547;BME280;41275;51.912;4.388;2023-03-31T19:11:30;98880.56;;;16.20;57.49
21547;BME280;41275;51.912;4.388;2023-03-31T19:16:51;98877.88;;;16.20;57.43
21547;BME280;41275;51.912;4.388;2023-03-31T19:22:12;98884.16;;;16.15;57.65
21547;BME280;41275;51.912;4.388;2023-03-31T19:27:37;98879.44;;;16.12;57.35
21547;BME280;41275;51.912;4.388;2023-03-31T19:32:59;98884.16;;;16.15;57.61
21547;BME280;41275;51.912;4.388;2023-03-31T19:38:22;98897.50;;;16.15;57.52
21547;BME280;41275;51.912;4.388;2023-03-31T19:43:45;98904.69;;;16.15;57.84
21547;BME280;41275;51.912;4.388;2023-03-31T19:49:07;98895.28;;;16.17;57.87
21547;BME280;41275;51.912;4.388;2023-03-31T19:54:29;98892.31;;;16.19;57.99
21547;BME280;41275;51.912;4.388;2023-03-31T19:59:50;98886.97;;;16.19;57.97
21547;BME280;41275;51.912;4.388;2023-03-31T20:05:12;98890.28;;;16.16;57.98
21547;BME280;41275;51.912;4.388;2023-03-31T20:10:33;98900.19;;;16.15;57.99
21547;BME280;41275;51.912;4.388;2023-03-31T20:15:59;98879.78;;;16.19;58.19
21547;BME280;41275;51.912;4.388;2023-03-31T20:21:24;98893.41;;;16.09;58.69
21547;BME280;41275;51.912;4.388;2023-03-31T20:26:46;98886.66;;;16.12;58.67
21547;BME280;41275;51.912;4.388;2023-03-31T20:32:07;98898.28;;;16.07;58.74
21547;BME280;41275;51.912;4.388;2023-03-31T20:37:29;98903.59;;;16.07;58.60
21547;BME280;41275;51.912;4.388;2023-03-31T20:42:50;98864.66;;;16.06;58.60
21547;BME280;41275;51.912;4.388;2023-03-31T20:48:12;98909.22;;;16.06;58.48
21547;BME280;41275;51.912;4.388;2023-03-31T20:53:34;98902.34;;;16.05;58.56
21547;BME280;41275;51.912;4.388;2023-03-31T20:59:14;98916.94;;;16.07;58.66
21547;BME280;41275;51.912;4.388;2023-03-31T21:04:35;98911.91;;;16.14;58.64
21547;BME280;41275;51.912;4.388;2023-03-31T21:09:56;98914.16;;;16.21;58.51
21547;BME280;41275;51.912;4.388;2023-03-31T21:15:17;98931.13;;;16.25;58.65
21547;BME280;41275;51.912;4.388;2023-03-31T21:20:39;98935.66;;;16.25;58.50
21547;BME280;41275;51.912;4.388;2023-03-31T21:26:02;98949.97;;;16.29;58.79
21547;BME280;41275;51.912;4.388;2023-03-31T21:31:26;98948.41;;;16.28;58.48
21547;BME280;41275;51.912;4.388;2023-03-31T21:36:47;98943.88;;;16.37;58.64
21547;BME280;41275;51.912;4.388;2023-03-31T21:42:10;98950.94;;;16.41;58.55
21547;BME280;41275;51.912;4.388;2023-03-31T21:47:31;98949.34;;;16.32;58.68
21547;BME280;41275;51.912;4.388;2023-03-31T21:52:52;98946.81;;;16.27;58.71
21547;BME280;41275;51.912;4.388;2023-03-31T21:58:13;98961.41;;;16.20;58.54
21547;BME280;41275;51.912;4.388;2023-03-31T22:03:54;98966.41;;;16.22;58.95
21547;BME280;41275;51.912;4.388;2023-03-31T22:09:16;98969.94;;;16.31;58.53
21547;BME280;41275;51.912;4.388;2023-03-31T22:14:37;98986.53;;;16.19;58.70
21547;BME280;41275;51.912;4.388;2023-03-31T22:19:58;98988.34;;;16.10;58.80
21547;BME280;41275;51.912;4.388;2023-03-31T22:25:19;99008.00;;;16.14;58.71
21547;BME280;41275;51.912;4.388;2023-03-31T22:30:41;99006.28;;;16.18;58.30
21547;BME280;41275;51.912;4.388;2023-03-31T22:36:02;99019.34;;;16.20;58.47
21547;BME280;41275;51.912;4.388;2023-03-31T22:41:24;99028.91;;;16.21;58.48
21547;BME280;41275;51.912;4.388;2023-03-31T22:46:46;99032.19;;;16.18;58.50
21547;BME280;41275;51.912;4.388;2023-03-31T22:52:07;99036.38;;;16.10;58.23
21547;BME280;41275;51.912;4.388;2023-03-31T22:57:28;99038.75;;;16.12;58.35
21547;BME280;41275;51.912;4.388;2023-03-31T23:02:50;99050.81;;;16.09;58.21
21547;BME280;41275;51.912;4.388;2023-03-31T23:08:11;99050.34;;;16.07;58.37
21547;BME280;41275;51.912;4.388;2023-03-31T23:13:32;99053.63;;;16.04;57.97
21547;BME280;41275;51.912;4.388;2023-03-31T23:18:54;99062.69;;;16.03;58.02
21547;BME280;41275;51.912;4.388;2023-03-31T23:24:15;99069.63;;;16.04;58.05
21547;BME280;41275;51.912;4.388;2023-03-31T23:29:39;99076.03;;;16.03;57.90
21547;BME280;41275;51.912;4.388;2023-03-31T23:35:01;99086.72;;;16.03;57.66
21547;BME280;41275;51.912;4.388;2023-03-31T23:40:23;99083.72;;;15.96;57.59
21547;BME280;41275;51.912;4.388;2023-03-31T23:45:44;99091.03;;;15.90;58.00
21547;BME280;41275;51.912;4.388;2023-03-31T23:51:06;99109.25;;;15.88;57.67
21547;BME280;41275;51.912;4.388;2023-03-31T23:56:28;99102.75;;;15.81;57.67
